createdAt,value
2019-01-06T00:02:22.583Z,3.70
2019-01-06T00:05:08.787Z,3.20
2019-01-06T00:07:41.561Z,4.47
2019-01-06T00:10:13.769Z,4.03
2019-01-06T00:13:01.829Z,3.23
2019-01-06T00:15:47.953Z,3.23
2019-01-06T00:18:17.760Z,3.30
2019-01-06T00:20:50.461Z,3.27
2019-01-06T00:23:37.328Z,3.10
2019-01-06T00:26:10.037Z,2.40
2019-01-06T00:28:45.937Z,3.43
2019-01-06T00:31:15.714Z,2.90
2019-01-06T00:34:00.533Z,2.37
2019-01-06T00:36:46.611Z,2.33
2019-01-06T00:39:33.031Z,2.23
2019-01-06T00:42:11.845Z,2.77
2019-01-06T00:44:53.853Z,2.10
2019-01-06T00:47:26.397Z,2.07
2019-01-06T00:50:12.892Z,2.20
2019-01-06T00:52:48.572Z,2.30
2019-01-06T00:55:18.669Z,2.37
2019-01-06T00:58:05.039Z,2.60
2019-01-06T01:00:40.749Z,2.37
2019-01-06T01:03:27.046Z,2.37
2019-01-06T01:06:02.637Z,2.33
2019-01-06T01:08:32.413Z,2.80
2019-01-06T01:11:04.913Z,2.03
2019-01-06T01:13:41.357Z,2.17
2019-01-06T01:16:17.317Z,2.00
2019-01-06T01:18:56.304Z,2.00
2019-01-06T01:21:37.902Z,2.03
2019-01-06T01:24:24.201Z,1.73
2019-01-06T01:27:01.105Z,1.97
2019-01-06T01:29:36.829Z,1.73
2019-01-06T01:32:09.351Z,1.77
2019-01-06T01:34:39.121Z,1.67
2019-01-06T01:37:27.222Z,1.60
2019-01-06T01:40:05.664Z,1.80
2019-01-06T01:42:41.170Z,1.60
2019-01-06T01:45:13.379Z,1.77
2019-01-06T01:48:01.496Z,1.53
2019-01-06T01:50:46.385Z,1.93
2019-01-06T01:53:24.894Z,1.73
2019-01-06T01:56:06.815Z,1.37
2019-01-06T01:58:53.158Z,1.90
2019-01-06T02:01:32.021Z,1.10
2019-01-06T02:04:04.529Z,1.30
2019-01-06T02:06:37.293Z,1.40
2019-01-06T02:09:07.617Z,1.40
2019-01-06T02:11:40.153Z,1.50
2019-01-06T02:14:09.931Z,1.20
2019-01-06T02:16:45.989Z,1.57
2019-01-06T02:19:24.581Z,1.53
2019-01-06T02:22:11.037Z,1.40
2019-01-06T02:24:52.694Z,1.43
2019-01-06T02:27:38.958Z,1.70
2019-01-06T02:30:17.745Z,1.23
2019-01-06T02:33:02.737Z,1.60
2019-01-06T02:35:38.230Z,1.63
2019-01-06T02:38:10.947Z,1.57
2019-01-06T02:40:49.205Z,1.40
2019-01-06T02:43:35.397Z,1.73
2019-01-06T02:46:10.868Z,1.50
2019-01-06T02:48:40.955Z,1.33
2019-01-06T02:51:23.020Z,1.70
2019-01-06T02:53:52.830Z,1.30
2019-01-06T02:56:25.282Z,1.80
2019-01-06T02:59:10.363Z,2.00
2019-01-06T03:01:40.143Z,1.90
2019-01-06T03:04:21.706Z,1.60
2019-01-06T03:06:54.575Z,1.70
2019-01-06T03:09:28.921Z,1.40
2019-01-06T03:12:15.246Z,1.53
2019-01-06T03:14:59.956Z,1.67
2019-01-06T03:17:45.943Z,1.33
2019-01-06T03:20:24.570Z,1.70
2019-01-06T03:23:03.472Z,1.43
2019-01-06T03:25:51.625Z,1.73
2019-01-06T03:28:27.205Z,1.57
2019-01-06T03:31:13.577Z,2.03
2019-01-06T03:33:59.390Z,2.13
2019-01-06T03:36:45.454Z,1.77
2019-01-06T03:39:24.288Z,2.60
2019-01-06T03:42:10.371Z,2.00
2019-01-06T03:44:56.526Z,1.30
2019-01-06T03:47:38.639Z,1.80
2019-01-06T03:50:14.311Z,1.40
2019-01-06T03:52:44.122Z,1.60
2019-01-06T03:55:19.790Z,1.43
2019-01-06T03:57:58.498Z,1.30
2019-01-06T04:00:28.645Z,1.20
2019-01-06T04:03:16.537Z,1.30
2019-01-06T04:06:02.892Z,1.53
2019-01-06T04:08:41.684Z,1.70
2019-01-06T04:11:23.784Z,1.40
2019-01-06T04:13:53.588Z,1.10
2019-01-06T04:16:26.341Z,1.40
2019-01-06T04:18:56.134Z,1.30
2019-01-06T04:21:42.252Z,1.20
2019-01-06T04:24:29.292Z,0.97
2019-01-06T04:26:59.090Z,1.10
2019-01-06T04:29:40.969Z,1.60
2019-01-06T04:32:23.063Z,1.40
2019-01-06T04:34:59.021Z,1.70
2019-01-06T04:37:31.436Z,1.33
2019-01-06T04:40:03.766Z,1.60
2019-01-06T04:42:49.834Z,1.50
2019-01-06T04:45:25.511Z,1.37
2019-01-06T04:47:58.434Z,1.30
2019-01-06T04:50:34.065Z,1.50
2019-01-06T04:53:19.840Z,1.30
2019-01-06T04:55:49.625Z,2.13
2019-01-06T04:58:31.776Z,1.90
2019-01-06T05:01:04.604Z,1.97
2019-01-06T05:03:34.381Z,1.70
2019-01-06T05:06:06.873Z,2.03
2019-01-06T05:08:53.065Z,1.57
2019-01-06T05:11:27.415Z,1.77
2019-01-06T05:14:00.362Z,2.23
2019-01-06T05:16:32.849Z,1.80
2019-01-06T05:19:11.506Z,1.40
2019-01-06T05:21:41.524Z,1.50
2019-01-06T05:24:14.311Z,2.00
2019-01-06T05:26:59.433Z,1.63
2019-01-06T05:29:45.836Z,1.67
2019-01-06T05:32:21.812Z,1.60
2019-01-06T05:34:57.523Z,1.50
2019-01-06T05:37:27.329Z,1.70
2019-01-06T05:40:05.740Z,1.90
2019-01-06T05:42:54.021Z,1.40
2019-01-06T05:45:23.798Z,1.53
2019-01-06T05:48:05.566Z,1.90
2019-01-06T05:50:38.345Z,2.33
2019-01-06T05:53:08.168Z,2.30
2019-01-06T05:55:41.051Z,2.30
2019-01-06T05:58:19.845Z,2.80
2019-01-06T06:00:52.490Z,2.63
2019-01-06T06:03:22.273Z,2.77
2019-01-06T06:06:01.068Z,2.57
2019-01-06T06:08:30.852Z,2.60
2019-01-06T06:11:03.627Z,2.27
2019-01-06T06:13:51.572Z,3.13
2019-01-06T06:16:39.636Z,2.80
2019-01-06T06:19:24.674Z,2.90
2019-01-06T06:22:09.701Z,3.13
2019-01-06T06:24:48.489Z,2.50
2019-01-06T06:27:21.020Z,3.17
2019-01-06T06:30:06.929Z,3.73
2019-01-06T06:32:39.349Z,3.33
2019-01-06T06:35:47.824Z,2.53
2019-01-06T08:04:55.691Z,3.33
2019-01-06T08:07:37.679Z,3.20
2019-01-06T08:10:17.946Z,3.17
2019-01-06T08:12:56.786Z,3.65
2019-01-06T08:15:32.653Z,3.80
2019-01-06T08:18:17.398Z,3.73
2019-01-06T08:20:53.313Z,3.37
2019-01-06T08:23:23.090Z,3.70
2019-01-06T08:25:58.705Z,3.40
2019-01-06T08:28:43.573Z,3.30
2019-01-06T08:31:19.649Z,4.13
2019-01-06T08:33:55.668Z,3.33
2019-01-06T08:36:31.709Z,3.57
2019-01-06T08:39:07.416Z,3.50
2019-01-06T08:41:53.838Z,4.00
2019-01-06T08:44:40.123Z,3.63
2019-01-06T08:47:26.330Z,3.97
2019-01-06T08:50:07.989Z,4.27
2019-01-06T08:52:54.437Z,3.33
2019-01-06T08:55:40.423Z,3.83
2019-01-06T08:58:26.645Z,4.17
2019-01-06T09:03:54.774Z,4.27
2019-01-06T09:06:42.932Z,4.33
2019-01-06T09:09:22.027Z,3.53
2019-01-06T09:12:08.585Z,4.67
2019-01-06T09:14:47.443Z,4.40
2019-01-06T09:17:26.549Z,4.27
2019-01-06T09:20:08.941Z,4.53
2019-01-06T09:22:55.037Z,4.83
2019-01-06T09:25:41.468Z,4.10
2019-01-06T09:28:17.359Z,4.30
2019-01-06T09:30:47.431Z,4.73
2019-01-06T09:33:17.234Z,4.20
2019-01-06T09:36:03.689Z,3.83
2019-01-06T09:38:33.473Z,3.63
2019-01-06T09:41:19.894Z,4.10
2019-01-06T09:44:05.914Z,4.00
2019-01-06T09:46:35.725Z,4.10
2019-01-06T09:49:11.762Z,3.90
2019-01-06T09:51:41.569Z,4.10
2019-01-06T09:54:17.050Z,3.40
2019-01-06T09:56:53.242Z,3.97
2019-01-06T09:59:39.446Z,3.67
2019-01-06T10:02:21.088Z,3.73
2019-01-06T10:04:56.632Z,3.67
2019-01-06T10:07:35.501Z,2.53
2019-01-06T10:10:08.593Z,3.60
2019-01-06T10:12:38.373Z,3.43
2019-01-06T10:15:17.635Z,3.23
2019-01-06T10:17:53.198Z,3.13
2019-01-06T10:20:23.305Z,3.30
2019-01-06T10:22:53.086Z,3.27
2019-01-06T10:25:33.112Z,3.00
2019-01-06T10:28:02.897Z,3.57
2019-01-06T10:30:49.334Z,3.87
2019-01-06T10:33:36.396Z,3.80
2019-01-06T10:36:15.681Z,3.50
2019-01-06T10:39:01.952Z,3.20
2019-01-06T10:41:37.142Z,3.50
2019-01-06T10:44:08.097Z,4.03
2019-01-06T10:46:44.041Z,3.70
2019-01-06T10:49:30.514Z,4.03
2019-01-06T10:52:18.287Z,3.87
2019-01-06T10:54:48.165Z,3.60
2019-01-06T10:57:34.144Z,3.50
2019-01-06T11:00:09.726Z,4.00
2019-01-06T11:02:56.060Z,3.00
2019-01-06T11:05:31.689Z,3.47
2019-01-06T11:08:04.315Z,3.93
2019-01-06T11:10:40.095Z,4.20
2019-01-06T11:13:12.685Z,4.23
2019-01-06T11:15:45.200Z,3.80
2019-01-06T11:18:26.941Z,4.33
2019-01-06T11:20:56.720Z,4.47
2019-01-06T11:23:44.705Z,4.13
2019-01-06T11:26:26.522Z,3.87
2019-01-06T11:29:02.184Z,4.50
2019-01-06T11:31:48.479Z,4.60
2019-01-06T11:34:18.282Z,5.33
2019-01-06T11:36:48.063Z,5.27
2019-01-06T11:39:34.277Z,4.53
2019-01-06T11:42:22.104Z,4.30
2019-01-06T11:44:57.714Z,4.27
2019-01-06T11:47:27.510Z,4.07
2019-01-06T11:49:57.285Z,4.27
2019-01-06T11:52:27.100Z,4.40
2019-01-06T11:54:56.864Z,4.40
2019-01-06T11:57:32.718Z,4.37
2019-01-06T12:00:11.061Z,4.63
2019-01-06T12:02:49.766Z,4.00
2019-01-06T12:05:19.540Z,4.40
2019-01-06T12:07:52.003Z,4.83
2019-01-06T12:10:27.876Z,4.93
2019-01-06T12:13:06.730Z,4.37
2019-01-06T12:15:52.938Z,4.50
2019-01-06T12:18:38.941Z,4.67
2019-01-06T12:21:11.628Z,4.63
2019-01-06T12:23:57.723Z,4.40
2019-01-06T12:26:27.532Z,4.37
2019-01-06T12:29:15.417Z,4.07
2019-01-06T12:31:56.936Z,4.77
2019-01-06T12:34:38.413Z,5.13
2019-01-06T12:37:24.485Z,4.00
2019-01-06T12:40:06.262Z,4.20
2019-01-06T12:42:53.045Z,4.30
2019-01-06T12:45:22.824Z,3.97
2019-01-06T12:47:56.893Z,4.10
2019-01-06T12:50:43.010Z,4.33
2019-01-06T12:53:12.795Z,4.47
2019-01-06T12:56:00.912Z,4.37
2019-01-06T12:58:47.233Z,4.50
2019-01-06T13:01:23.303Z,5.10
2019-01-06T13:04:05.680Z,4.97
2019-01-06T13:06:35.446Z,4.90
2019-01-06T13:09:06.033Z,5.33
2019-01-06T13:11:50.885Z,5.40
2019-01-06T13:14:38.324Z,4.90
2019-01-06T13:17:11.174Z,4.50
2019-01-06T13:19:46.947Z,5.63
2019-01-06T13:22:22.685Z,5.67
2019-01-06T13:25:08.667Z,5.73
2019-01-06T13:27:54.713Z,6.37
2019-01-06T13:30:35.565Z,6.37
2019-01-06T13:33:14.125Z,6.30
2019-01-06T13:35:43.909Z,6.63
2019-01-06T13:38:13.694Z,6.27
2019-01-06T13:40:43.753Z,6.97
2019-01-06T13:43:31.110Z,5.80
2019-01-06T13:46:16.041Z,5.97
2019-01-06T13:48:45.816Z,6.27
2019-01-06T13:51:24.939Z,6.93
2019-01-06T13:54:09.965Z,7.50
2019-01-06T13:56:50.259Z,6.90
2019-01-06T13:59:26.164Z,5.97
2019-01-06T14:01:59.522Z,6.77
2019-01-06T14:04:29.305Z,6.63
2019-01-06T14:07:01.851Z,7.00
2019-01-06T14:09:40.469Z,6.13
2019-01-06T14:12:26.789Z,5.87
2019-01-06T14:15:09.481Z,5.97
2019-01-06T14:17:45.359Z,5.97
2019-01-06T14:20:20.958Z,5.20
2019-01-06T14:22:53.297Z,4.80
2019-01-06T14:25:26.048Z,5.60
2019-01-06T14:28:02.081Z,6.23
2019-01-06T14:30:38.065Z,5.73
2019-01-06T14:33:25.585Z,6.00
2019-01-06T14:35:56.872Z,6.00
2019-01-06T14:38:35.609Z,5.67
2019-01-06T14:41:17.498Z,6.17
2019-01-06T14:44:03.883Z,5.80
2019-01-06T14:46:50.008Z,6.37
2019-01-06T14:49:19.789Z,6.17
2019-01-06T14:51:55.426Z,6.77
2019-01-06T14:54:43.317Z,6.53
2019-01-06T14:57:31.470Z,7.37
2019-01-06T15:00:04.510Z,7.00
2019-01-06T15:02:50.977Z,7.17
2019-01-06T15:05:23.474Z,6.20
2019-01-06T15:08:02.345Z,6.90
2019-01-06T15:10:34.893Z,7.03
2019-01-06T15:13:10.562Z,7.10
2019-01-06T15:15:40.344Z,9.00
2019-01-06T15:18:26.313Z,8.87
2019-01-06T15:20:56.097Z,7.20
2019-01-06T15:23:42.398Z,7.23
2019-01-06T15:26:28.591Z,7.40
2019-01-06T15:29:01.508Z,7.00
2019-01-06T15:31:31.342Z,7.93
2019-01-06T15:34:17.745Z,7.63
2019-01-06T15:36:47.529Z,7.70
2019-01-06T15:39:23.561Z,8.40
2019-01-06T15:42:09.935Z,8.70
2019-01-06T15:44:39.741Z,9.47
2019-01-06T15:47:15.364Z,10.63
2019-01-06T15:49:48.436Z,9.90
2019-01-06T15:52:34.501Z,9.23
2019-01-06T15:55:22.453Z,9.20
2019-01-06T15:58:08.514Z,9.40
2019-01-06T16:00:44.223Z,9.10
2019-01-06T16:03:22.905Z,9.83
2019-01-06T16:06:07.715Z,9.33
2019-01-06T16:08:40.421Z,10.85
2019-01-06T16:11:22.152Z,10.67
2019-01-06T16:13:57.894Z,9.87
2019-01-06T16:16:34.262Z,11.07
2019-01-06T16:19:07.072Z,10.30
2019-01-06T16:21:42.983Z,10.17
2019-01-06T16:24:12.782Z,10.33
2019-01-06T16:26:48.689Z,11.37
2019-01-06T16:29:39.193Z,10.67
2019-01-06T16:32:09.321Z,11.33
2019-01-06T16:34:55.537Z,11.77
2019-01-06T16:37:25.366Z,11.47
2019-01-06T16:40:07.389Z,10.17
2019-01-06T16:42:40.128Z,11.60
2019-01-06T16:45:12.670Z,13.00
2019-01-06T16:47:59.492Z,10.90
2019-01-06T16:50:35.078Z,12.77
2019-01-06T16:53:10.508Z,11.83
2019-01-06T16:55:56.767Z,11.70
2019-01-06T16:58:26.564Z,12.30
2019-01-06T17:00:59.277Z,12.33
2019-01-06T17:03:37.998Z,12.07
2019-01-06T17:06:17.232Z,12.57
2019-01-06T17:08:47.052Z,11.87
2019-01-06T17:11:22.725Z,12.43
2019-01-06T17:13:55.588Z,13.50
2019-01-06T17:16:28.389Z,13.23
2019-01-06T17:19:00.987Z,13.23
2019-01-06T17:21:47.270Z,12.83
2019-01-06T17:24:26.157Z,12.50
2019-01-06T17:26:59.000Z,12.30
2019-01-06T17:29:28.793Z,13.80
2019-01-06T17:32:04.585Z,12.97
2019-01-06T17:34:43.572Z,13.20
2019-01-06T17:37:37.992Z,12.73
2019-01-06T17:40:07.062Z,12.77
2019-01-06T17:42:42.594Z,13.87
2019-01-06T17:45:27.455Z,12.67
2019-01-06T17:47:57.265Z,13.17
2019-01-06T17:50:33.104Z,13.00
2019-01-06T17:53:11.471Z,14.17
2019-01-06T17:55:44.237Z,12.80
2019-01-06T17:58:13.984Z,14.13
2019-01-06T18:00:52.410Z,14.27
2019-01-06T18:03:38.893Z,14.30
2019-01-06T18:06:08.849Z,14.33
2019-01-06T18:08:56.182Z,14.57
2019-01-06T18:11:26.353Z,14.07
2019-01-06T18:14:12.863Z,13.97
2019-01-06T18:16:51.820Z,14.70
2019-01-06T18:19:24.801Z,14.03
2019-01-06T18:22:12.822Z,14.27
2019-01-06T18:24:59.376Z,15.70
2019-01-06T18:27:44.336Z,13.93
2019-01-06T18:30:32.630Z,13.80
2019-01-06T18:33:06.149Z,14.40
2019-01-06T18:35:36.885Z,14.63
2019-01-06T18:38:15.862Z,13.93
2019-01-06T18:40:51.392Z,15.00
2019-01-06T18:43:37.687Z,13.73
2019-01-06T18:46:24.339Z,14.50
2019-01-06T18:49:01.333Z,14.47
2019-01-06T18:51:47.828Z,14.17
2019-01-06T18:54:17.927Z,16.12
2019-01-06T18:56:56.861Z,17.27
2019-01-06T18:59:29.561Z,14.53
2019-01-06T19:05:22.923Z,13.30
2019-01-06T19:07:59.933Z,14.67
2019-01-06T19:10:29.894Z,13.90
2019-01-06T19:13:12.064Z,14.17
2019-01-06T19:15:44.739Z,14.87
2019-01-06T19:18:20.591Z,13.37
2019-01-06T19:20:50.553Z,15.05
2019-01-06T19:23:25.030Z,14.00
2019-01-06T19:25:58.784Z,13.32
2019-01-06T19:28:39.150Z,16.40
2019-01-06T19:31:15.013Z,15.30
2019-01-06T19:34:00.996Z,14.20
2019-01-06T19:36:42.718Z,14.67
2019-01-06T19:39:12.525Z,14.63
2019-01-06T19:41:54.750Z,14.83
2019-01-06T19:44:42.339Z,14.17
2019-01-06T19:47:29.006Z,15.27
2019-01-06T19:50:05.229Z,16.20
2019-01-06T19:52:38.046Z,15.50
2019-01-06T19:55:11.805Z,13.53
2019-01-06T19:57:59.929Z,14.57
2019-01-06T20:00:29.788Z,14.43
2019-01-06T20:03:15.960Z,15.33
2019-01-06T20:05:48.465Z,13.87
2019-01-06T20:08:35.023Z,14.07
2019-01-06T20:11:10.971Z,13.93
2019-01-06T20:13:50.407Z,14.67
2019-01-06T20:16:38.808Z,14.20
2019-01-06T20:19:24.067Z,15.17
2019-01-06T20:22:10.487Z,15.23
2019-01-06T20:25:00.286Z,15.10
2019-01-06T20:27:33.921Z,14.57
2019-01-06T20:30:04.009Z,14.00
2019-01-06T20:32:42.805Z,14.33
2019-01-06T20:35:31.156Z,14.93
2019-01-06T20:38:06.906Z,14.57
2019-01-06T20:40:42.692Z,13.80
2019-01-06T20:43:12.683Z,15.07
2019-01-06T20:45:42.802Z,13.90
2019-01-06T20:48:12.813Z,14.17
2019-01-06T20:50:48.717Z,14.60
2019-01-06T20:53:34.865Z,14.33
2019-01-06T20:56:23.525Z,13.83
2019-01-06T20:59:08.339Z,14.70
2019-01-06T21:01:56.237Z,14.07
2019-01-06T21:04:30.956Z,14.37
2019-01-06T21:07:00.950Z,14.30
2019-01-06T21:09:37.929Z,13.37
2019-01-06T21:12:26.404Z,13.63
2019-01-06T21:15:11.504Z,14.17
2019-01-06T21:17:58.900Z,13.93
2019-01-06T21:20:37.904Z,13.37
2019-01-06T21:23:19.892Z,13.17
2019-01-06T21:26:01.889Z,14.13
2019-01-06T21:28:37.413Z,14.07
2019-01-06T21:31:23.477Z,13.97
2019-01-06T21:34:09.832Z,14.03
2019-01-06T21:36:42.656Z,14.00
2019-01-06T21:39:13.705Z,13.13
2019-01-06T21:41:48.961Z,14.10
2019-01-06T21:44:37.172Z,13.60
2019-01-06T21:47:23.150Z,14.40
2019-01-06T21:49:55.623Z,13.77
2019-01-06T21:52:34.700Z,13.40
2019-01-06T21:55:13.773Z,13.80
2019-01-06T21:57:43.681Z,13.40
2019-01-06T22:00:25.684Z,13.80
2019-01-06T22:03:10.759Z,13.87
2019-01-06T22:05:57.182Z,13.90
2019-01-06T22:08:33.453Z,13.67
2019-01-06T22:11:14.937Z,13.07
2019-01-06T22:14:00.757Z,14.27
2019-01-06T22:16:49.493Z,14.13
2019-01-06T22:19:22.215Z,15.03
2019-01-06T22:21:54.945Z,14.47
2019-01-06T22:24:33.644Z,14.37
2019-01-06T22:27:08.638Z,14.03
2019-01-06T22:29:47.313Z,15.23
2019-01-06T22:32:17.123Z,14.63
2019-01-06T22:34:46.991Z,13.87
2019-01-06T22:37:22.599Z,14.27
2019-01-06T22:39:52.380Z,15.83
2019-01-06T22:42:29.284Z,15.10
2019-01-06T22:45:18.597Z,14.03
2019-01-06T22:48:00.509Z,14.33
2019-01-06T22:50:45.541Z,14.60
2019-01-06T22:53:18.058Z,15.60
2019-01-06T22:56:00.016Z,14.93
2019-01-06T22:58:41.961Z,15.17
2019-01-06T23:01:11.748Z,15.10
2019-01-06T23:03:47.121Z,15.90
2019-01-06T23:06:16.906Z,15.20
2019-01-06T23:08:46.713Z,14.50
2019-01-06T23:11:16.527Z,14.33
2019-01-06T23:14:02.885Z,15.93
2019-01-06T23:16:32.693Z,15.10
2019-01-06T23:19:17.489Z,15.23
2019-01-06T23:21:53.537Z,14.83
2019-01-06T23:24:23.325Z,16.95
2019-01-06T23:26:56.043Z,15.57
2019-01-06T23:29:42.460Z,14.83
2019-01-06T23:32:15.377Z,13.93
2019-01-06T23:34:45.617Z,14.90
2019-01-06T23:37:30.325Z,14.77
2019-01-06T23:40:00.194Z,15.33
2019-01-06T23:42:38.891Z,14.77
2019-01-06T23:45:14.765Z,15.67
2019-01-06T23:47:47.490Z,15.17
2019-01-06T23:50:29.462Z,13.60
2019-01-06T23:53:15.501Z,13.57
2019-01-06T23:56:01.549Z,14.07
2019-01-06T23:58:37.368Z,13.40
